createdAt,value
2018-10-18T00:00:56.725Z,14.80
2018-10-18T00:03:24.758Z,14.70
2018-10-18T00:05:56.974Z,14.70
2018-10-18T00:08:25.013Z,14.70
2018-10-18T00:10:52.953Z,14.70
2018-10-18T00:13:20.834Z,14.70
2018-10-18T00:15:48.808Z,14.70
2018-10-18T00:18:21.499Z,14.70
2018-10-18T00:20:49.391Z,14.70
2018-10-18T00:23:17.241Z,14.70
2018-10-18T00:25:45.098Z,14.70
2018-10-18T00:28:12.959Z,14.70
2018-10-18T00:30:40.813Z,14.80
2018-10-18T00:33:10.294Z,14.80
2018-10-18T00:35:38.196Z,14.70
2018-10-18T00:38:06.143Z,14.80
2018-10-18T00:40:34.029Z,14.80
2018-10-18T00:43:01.795Z,14.80
2018-10-18T00:45:29.644Z,14.80
2018-10-18T00:47:59.643Z,14.80
2018-10-18T00:50:27.466Z,14.70
2018-10-18T00:52:55.280Z,14.70
2018-10-18T00:55:23.132Z,14.80
2018-10-18T00:57:51.044Z,14.80
2018-10-18T01:00:24.813Z,14.70
2018-10-18T01:02:52.656Z,14.70
2018-10-18T01:05:20.538Z,14.80
2018-10-18T01:07:48.475Z,14.50
2018-10-18T01:10:16.332Z,14.80
2018-10-18T01:12:47.713Z,14.80
2018-10-18T01:15:15.558Z,14.80
2018-10-18T01:17:43.375Z,14.80
2018-10-18T01:20:11.283Z,14.90
2018-10-18T01:22:38.960Z,14.90
2018-10-18T01:25:11.943Z,14.90
2018-10-18T01:27:39.608Z,14.90
2018-10-18T01:30:07.394Z,14.90
2018-10-18T01:32:35.318Z,14.40
2018-10-18T01:35:03.221Z,14.80
2018-10-18T01:37:36.566Z,14.80
2018-10-18T01:40:04.446Z,14.80
2018-10-18T01:42:32.094Z,14.80
2018-10-18T01:45:00.559Z,14.80
2018-10-18T01:47:28.201Z,14.80
2018-10-18T01:52:30.494Z,14.80
2018-10-18T01:54:58.119Z,14.80
2018-10-18T01:57:25.752Z,14.80
2018-10-18T01:59:53.355Z,14.80
2018-10-18T02:02:21.046Z,14.70
2018-10-18T02:04:51.395Z,14.70
2018-10-18T02:07:19.136Z,14.70
2018-10-18T02:09:46.764Z,14.70
2018-10-18T02:12:14.473Z,14.80
2018-10-18T02:14:42.056Z,14.80
2018-10-18T02:17:09.683Z,14.80
2018-10-18T02:19:43.968Z,14.80
2018-10-18T02:22:11.550Z,14.80
2018-10-18T02:24:39.159Z,14.80
2018-10-18T02:27:06.819Z,14.80
2018-10-18T02:29:34.507Z,14.80
2018-10-18T02:32:02.106Z,14.70
2018-10-18T02:34:31.255Z,14.80
2018-10-18T02:36:58.880Z,14.80
2018-10-18T02:39:26.423Z,14.80
2018-10-18T02:41:54.138Z,14.60
2018-10-18T02:44:21.707Z,14.80
2018-10-18T02:46:53.845Z,14.90
2018-10-18T02:49:21.597Z,14.90
2018-10-18T02:51:49.206Z,14.70
2018-10-18T02:54:17.049Z,15.00
2018-10-18T02:56:44.668Z,15.00
2018-10-18T02:59:12.273Z,15.10
2018-10-18T03:01:41.845Z,15.00
2018-10-18T03:04:09.583Z,15.10
2018-10-18T03:06:37.153Z,15.10
2018-10-18T03:09:07.282Z,15.20
2018-10-18T03:11:34.906Z,15.20
2018-10-18T03:14:07.303Z,15.20
2018-10-18T03:16:34.894Z,15.20
2018-10-18T03:19:02.659Z,15.30
2018-10-18T03:21:30.706Z,15.30
2018-10-18T03:23:58.404Z,15.30
2018-10-18T03:26:32.393Z,15.30
2018-10-18T03:29:00.007Z,15.40
2018-10-18T03:31:27.615Z,15.40
2018-10-18T03:33:55.215Z,15.40
2018-10-18T03:36:22.887Z,15.40
2018-10-18T03:38:55.045Z,15.50
2018-10-18T03:41:22.797Z,15.50
2018-10-18T03:43:50.404Z,15.50
2018-10-18T03:46:18.313Z,15.50
2018-10-18T03:48:46.007Z,15.30
2018-10-18T03:51:13.676Z,15.60
2018-10-18T03:53:43.465Z,15.60
2018-10-18T03:56:11.075Z,15.90
2018-10-18T03:58:38.739Z,15.60
2018-10-18T04:01:06.400Z,15.60
2018-10-18T04:03:34.106Z,15.60
2018-10-18T04:06:03.113Z,15.60
2018-10-18T04:08:32.726Z,15.60
2018-10-18T04:11:00.324Z,15.70
2018-10-18T04:13:27.954Z,15.70
2018-10-18T04:15:55.556Z,15.70
2018-10-18T04:18:23.256Z,15.70
2018-10-18T04:20:53.851Z,15.70
2018-10-18T04:23:30.274Z,15.80
2018-10-18T04:25:58.030Z,15.80
2018-10-18T04:28:26.440Z,15.80
2018-10-18T04:30:56.363Z,15.80
2018-10-18T04:33:24.003Z,15.80
2018-10-18T04:35:51.776Z,15.80
2018-10-18T04:38:19.506Z,15.80
2018-10-18T04:40:47.139Z,15.80
2018-10-18T04:43:19.561Z,15.80
2018-10-18T04:45:47.232Z,15.80
2018-10-18T04:48:14.920Z,15.80
2018-10-18T04:50:42.481Z,15.80
2018-10-18T04:53:10.632Z,15.80
2018-10-18T04:55:38.225Z,15.80
2018-10-18T04:58:14.993Z,15.90
2018-10-18T05:00:42.607Z,15.80
2018-10-18T05:03:10.218Z,15.80
2018-10-18T05:06:08.617Z,15.80
2018-10-18T05:08:36.247Z,15.80
2018-10-18T05:11:03.966Z,15.80
2018-10-18T05:13:34.221Z,15.80
2018-10-18T05:16:02.105Z,15.80
2018-10-18T05:18:29.686Z,15.70
2018-10-18T05:20:57.287Z,15.70
2018-10-18T05:23:24.901Z,15.70
2018-10-18T05:25:52.593Z,15.70
2018-10-18T05:28:25.373Z,15.70
2018-10-18T05:30:53.243Z,15.70
2018-10-18T05:33:20.942Z,15.60
2018-10-18T05:35:48.634Z,15.60
2018-10-18T05:38:16.359Z,15.60
2018-10-18T05:40:49.008Z,15.60
2018-10-18T05:43:16.668Z,15.60
2018-10-18T05:45:44.265Z,15.60
2018-10-18T05:48:11.918Z,15.60
2018-10-18T05:50:39.556Z,15.60
2018-10-18T05:53:07.295Z,15.60
2018-10-18T05:55:34.877Z,15.60
2018-10-18T05:58:03.135Z,15.60
2018-10-18T06:00:31.040Z,15.70
2018-10-18T06:02:58.685Z,15.60
2018-10-18T06:05:26.237Z,15.60
2018-10-18T06:07:53.944Z,15.70
2018-10-18T06:10:33.169Z,15.70
2018-10-18T06:13:00.862Z,15.70
2018-10-18T06:15:28.458Z,15.70
2018-10-18T06:17:56.043Z,15.70
2018-10-18T06:20:23.640Z,15.80
2018-10-18T06:22:56.023Z,15.70
2018-10-18T06:25:23.611Z,15.70
2018-10-18T06:27:51.283Z,15.70
2018-10-18T06:30:18.952Z,15.80
2018-10-18T06:32:46.623Z,15.70
2018-10-18T06:35:19.214Z,15.80
2018-10-18T06:37:46.846Z,15.80
2018-10-18T06:40:15.783Z,15.80
2018-10-18T06:42:43.477Z,15.80
2018-10-18T06:45:16.505Z,15.90
2018-10-18T06:47:46.265Z,15.90
2018-10-18T06:50:15.349Z,16.00
2018-10-18T06:52:43.010Z,16.00
2018-10-18T06:55:10.714Z,16.00
2018-10-18T06:57:39.091Z,16.10
2018-10-18T07:00:11.197Z,16.10
2018-10-18T07:02:38.873Z,16.10
2018-10-18T07:05:07.806Z,16.10
2018-10-18T07:07:35.544Z,16.10
2018-10-18T07:10:03.273Z,16.20
2018-10-18T07:12:33.970Z,16.10
2018-10-18T07:15:01.587Z,16.10
2018-10-18T07:17:29.374Z,16.10
2018-10-18T07:19:56.960Z,16.40
2018-10-18T07:22:24.633Z,16.20
2018-10-18T07:24:56.995Z,16.20
2018-10-18T07:27:24.667Z,16.30
2018-10-18T07:29:52.269Z,16.30
2018-10-18T07:32:19.850Z,16.30
2018-10-18T07:34:47.515Z,16.30
2018-10-18T07:37:15.126Z,15.80
2018-10-18T07:39:44.231Z,16.40
2018-10-18T07:42:11.859Z,16.50
2018-10-18T07:44:39.598Z,16.50
2018-10-18T07:47:07.281Z,16.40
2018-10-18T07:49:34.916Z,16.40
2018-10-18T07:52:06.617Z,16.10
2018-10-18T07:54:34.266Z,16.40
2018-10-18T07:57:01.992Z,16.20
2018-10-18T07:59:29.544Z,16.30
2018-10-18T08:01:57.141Z,16.40
2018-10-18T08:04:24.740Z,16.20
2018-10-18T08:06:55.503Z,16.20
2018-10-18T08:09:23.096Z,16.20
2018-10-18T08:11:51.059Z,16.20
2018-10-18T08:14:18.751Z,16.30
2018-10-18T08:16:47.545Z,16.30
2018-10-18T08:19:20.881Z,16.30
2018-10-18T08:21:48.508Z,16.30
2018-10-18T08:24:16.255Z,16.30
2018-10-18T08:26:43.925Z,16.20
2018-10-18T08:29:11.694Z,16.20
2018-10-18T08:31:43.905Z,16.20
2018-10-18T08:34:11.695Z,16.30
2018-10-18T08:36:39.424Z,16.30
2018-10-18T08:39:08.413Z,16.40
2018-10-18T08:41:36.158Z,16.30
2018-10-18T08:44:08.001Z,16.40
2018-10-18T08:46:35.652Z,16.10
2018-10-18T08:49:03.396Z,16.00
2018-10-18T08:51:31.211Z,16.00
2018-10-18T08:53:58.907Z,16.10
2018-10-18T08:56:26.608Z,16.20
2018-10-18T08:58:57.273Z,16.20
2018-10-18T09:01:24.883Z,16.20
2018-10-18T09:03:52.624Z,16.30
2018-10-18T09:06:20.273Z,16.40
2018-10-18T09:08:48.334Z,16.60
2018-10-18T09:11:15.955Z,16.50
2018-10-18T09:13:50.994Z,16.60
2018-10-18T09:16:18.817Z,16.60
2018-10-18T09:18:46.427Z,16.60
2018-10-18T09:21:14.078Z,16.70
2018-10-18T09:23:41.788Z,16.70
2018-10-18T09:26:09.383Z,16.70
2018-10-18T09:28:39.118Z,16.80
2018-10-18T09:31:06.824Z,16.90
2018-10-18T09:33:34.546Z,16.90
2018-10-18T09:36:02.108Z,16.80
2018-10-18T09:38:29.807Z,16.80
2018-10-18T09:40:57.405Z,16.80
2018-10-18T09:43:29.368Z,17.00
2018-10-18T09:45:57.007Z,17.00
2018-10-18T09:48:24.689Z,17.10
2018-10-18T09:50:52.526Z,17.10
2018-10-18T09:53:20.151Z,17.10
2018-10-18T09:55:47.942Z,17.20
2018-10-18T09:58:19.549Z,17.00
2018-10-18T10:00:52.795Z,17.00
2018-10-18T10:03:21.004Z,17.00
2018-10-18T10:05:48.918Z,17.20
2018-10-18T10:08:16.809Z,17.30
2018-10-18T10:10:46.470Z,17.40
2018-10-18T10:13:14.567Z,17.60
2018-10-18T10:15:42.085Z,17.60
2018-10-18T10:18:09.673Z,17.70
2018-10-18T10:20:37.322Z,17.70
2018-10-18T10:23:10.082Z,17.70
2018-10-18T10:25:37.728Z,17.70
2018-10-18T10:28:05.439Z,17.80
2018-10-18T10:30:33.237Z,17.80
2018-10-18T10:33:01.012Z,17.90
2018-10-18T10:35:35.379Z,18.00
2018-10-18T10:38:03.048Z,18.00
2018-10-18T10:40:30.788Z,18.10
2018-10-18T10:42:58.500Z,18.10
2018-10-18T10:45:26.712Z,18.10
2018-10-18T10:47:57.744Z,18.00
2018-10-18T10:50:25.430Z,18.10
2018-10-18T10:52:53.141Z,18.00
2018-10-18T10:55:20.795Z,18.10
2018-10-18T10:57:48.533Z,18.10
2018-10-18T11:00:32.090Z,18.00
2018-10-18T11:02:59.810Z,18.00
2018-10-18T11:05:27.434Z,18.00
2018-10-18T11:08:00.776Z,17.80
2018-10-18T11:10:28.512Z,18.40
2018-10-18T11:12:56.176Z,18.40
2018-10-18T11:15:23.770Z,18.40
2018-10-18T11:17:51.366Z,18.50
2018-10-18T11:20:18.975Z,18.50
2018-10-18T11:22:51.208Z,18.30
2018-10-18T11:25:19.114Z,18.50
2018-10-18T11:27:46.790Z,18.60
2018-10-18T11:30:14.570Z,18.70
2018-10-18T11:32:42.220Z,18.40
2018-10-18T11:35:12.834Z,18.70
2018-10-18T11:37:40.418Z,18.70
2018-10-18T11:40:07.973Z,18.70
2018-10-18T11:42:35.633Z,18.70
2018-10-18T11:45:03.293Z,18.80
2018-10-18T11:47:35.380Z,18.90
2018-10-18T11:50:03.138Z,19.00
2018-10-18T11:52:30.760Z,19.10
2018-10-18T11:54:58.355Z,19.10
2018-10-18T11:57:25.943Z,19.00
2018-10-18T11:59:53.543Z,19.00
2018-10-18T12:02:23.813Z,18.90
2018-10-18T12:04:51.347Z,18.90
2018-10-18T12:07:18.945Z,18.90
2018-10-18T12:09:46.612Z,18.80
2018-10-18T12:12:14.172Z,18.80
2018-10-18T12:14:42.576Z,18.80
2018-10-18T12:17:14.311Z,18.90
2018-10-18T12:19:41.826Z,18.90
2018-10-18T12:22:09.356Z,19.00
2018-10-18T12:24:37.009Z,19.00
2018-10-18T12:27:05.203Z,19.00
2018-10-18T12:29:37.415Z,19.10
2018-10-18T12:32:05.253Z,19.10
2018-10-18T12:34:32.742Z,19.20
2018-10-18T12:37:00.296Z,19.10
2018-10-18T12:39:28.008Z,19.10
2018-10-18T12:41:55.598Z,19.10
2018-10-18T12:44:30.726Z,19.10
2018-10-18T12:46:58.298Z,19.40
2018-10-18T12:49:25.871Z,19.00
2018-10-18T12:51:53.863Z,19.00
2018-10-18T12:54:21.459Z,19.00
2018-10-18T12:56:53.968Z,19.00
2018-10-18T12:59:21.568Z,18.90
2018-10-18T13:01:49.181Z,18.90
2018-10-18T13:04:16.809Z,18.90
2018-10-18T13:06:44.370Z,18.80
2018-10-18T13:09:14.965Z,18.80
2018-10-18T13:11:42.505Z,18.80
2018-10-18T13:14:10.192Z,18.80
2018-10-18T13:16:37.642Z,18.80
2018-10-18T13:19:05.293Z,18.70
2018-10-18T13:21:34.255Z,18.70
2018-10-18T13:24:03.942Z,18.60
2018-10-18T13:26:31.486Z,18.80
2018-10-18T13:28:59.032Z,18.80
2018-10-18T13:31:26.564Z,18.80
2018-10-18T13:33:54.133Z,18.70
2018-10-18T13:36:21.684Z,18.50
2018-10-18T13:38:49.334Z,18.50
2018-10-18T13:41:16.975Z,18.60
2018-10-18T13:43:44.858Z,18.60
2018-10-18T13:46:12.542Z,18.50
2018-10-18T13:48:40.150Z,18.60
2018-10-18T13:51:08.049Z,18.50
2018-10-18T13:53:41.341Z,18.50
2018-10-18T13:56:10.020Z,18.50
2018-10-18T13:58:37.606Z,18.50
2018-10-18T14:01:05.377Z,18.50
2018-10-18T14:03:32.971Z,18.50
2018-10-18T14:06:06.926Z,18.50
2018-10-18T14:08:34.579Z,18.50
2018-10-18T14:11:02.190Z,18.50
2018-10-18T14:13:29.701Z,18.50
2018-10-18T14:15:57.270Z,18.60
2018-10-18T14:18:24.917Z,18.60
2018-10-18T14:20:57.348Z,18.60
2018-10-18T14:23:24.946Z,18.60
2018-10-18T14:25:52.606Z,18.40
2018-10-18T14:28:20.191Z,18.50
2018-10-18T14:30:47.792Z,18.50
2018-10-18T14:33:20.193Z,18.50
2018-10-18T14:35:47.965Z,18.40
2018-10-18T14:38:15.675Z,18.30
2018-10-18T14:40:43.174Z,18.30
2018-10-18T14:43:10.760Z,18.30
2018-10-18T14:45:38.431Z,18.40
2018-10-18T14:48:06.003Z,18.40
2018-10-18T14:50:35.681Z,18.50
2018-10-18T14:53:03.208Z,18.40
2018-10-18T14:55:30.833Z,18.40
2018-10-18T14:57:58.503Z,18.20
2018-10-18T15:00:26.214Z,17.90
2018-10-18T15:02:53.810Z,17.80
2018-10-18T15:05:24.835Z,17.90
2018-10-18T15:07:52.398Z,17.90
2018-10-18T15:10:20.008Z,17.40
2018-10-18T15:12:47.569Z,17.80
2018-10-18T15:15:15.177Z,17.90
2018-10-18T15:17:43.012Z,17.30
2018-10-18T15:20:16.353Z,17.70
2018-10-18T15:22:43.952Z,17.70
2018-10-18T15:25:12.380Z,17.70
2018-10-18T15:27:40.451Z,17.80
2018-10-18T15:30:08.966Z,17.90
2018-10-18T15:32:40.997Z,17.60
2018-10-18T15:35:09.647Z,17.70
2018-10-18T15:37:37.508Z,17.60
2018-10-18T15:40:05.537Z,17.70
2018-10-18T15:42:33.170Z,17.60
2018-10-18T15:45:05.871Z,17.60
2018-10-18T15:47:33.617Z,17.60
2018-10-18T15:50:01.257Z,17.50
2018-10-18T15:52:28.970Z,17.60
2018-10-18T15:54:56.607Z,17.50
2018-10-18T15:57:29.243Z,17.60
2018-10-18T15:59:56.859Z,17.50
2018-10-18T16:02:24.471Z,17.40
2018-10-18T16:04:52.079Z,17.40
2018-10-18T16:07:19.709Z,17.40
2018-10-18T16:09:47.318Z,17.40
2018-10-18T16:12:15.018Z,17.30
2018-10-18T16:14:44.377Z,17.30
2018-10-18T16:17:12.045Z,17.30
2018-10-18T16:19:39.616Z,17.20
2018-10-18T16:22:07.281Z,17.20
2018-10-18T16:24:34.800Z,17.10
2018-10-18T16:27:02.445Z,17.10
2018-10-18T16:29:32.370Z,17.10
2018-10-18T16:32:00.010Z,17.10
2018-10-18T16:34:27.562Z,17.10
2018-10-18T16:36:55.177Z,17.10
2018-10-18T16:39:22.813Z,17.10
2018-10-18T16:41:50.515Z,16.80
2018-10-18T16:44:21.422Z,16.90
2018-10-18T16:46:49.056Z,16.80
2018-10-18T16:49:16.637Z,16.80
2018-10-18T16:51:44.194Z,16.70
2018-10-18T16:54:11.888Z,16.60
2018-10-18T16:56:39.377Z,16.60
2018-10-18T16:59:09.893Z,16.50
2018-10-18T17:01:37.660Z,16.50
2018-10-18T17:04:05.333Z,16.50
2018-10-18T17:06:32.989Z,16.50
2018-10-18T17:09:00.640Z,16.40
2018-10-18T17:11:28.381Z,16.40
2018-10-18T17:13:59.596Z,16.50
2018-10-18T17:16:27.154Z,16.30
2018-10-18T17:18:54.693Z,16.40
2018-10-18T17:21:22.251Z,16.30
2018-10-18T17:23:50.074Z,16.30
2018-10-18T17:26:17.782Z,16.00
2018-10-18T17:28:48.222Z,16.00
2018-10-18T17:31:15.813Z,16.00
2018-10-18T17:33:43.439Z,16.00
2018-10-18T17:36:11.067Z,16.00
2018-10-18T17:38:38.653Z,16.00
2018-10-18T17:41:06.239Z,16.00
2018-10-18T17:43:35.935Z,16.00
2018-10-18T17:46:03.637Z,15.90
2018-10-18T17:48:31.250Z,16.00
2018-10-18T17:50:58.899Z,15.90
2018-10-18T17:53:26.497Z,15.90
2018-10-18T17:55:59.306Z,15.90
2018-10-18T17:58:26.895Z,16.00
2018-10-18T18:00:54.528Z,16.00
2018-10-18T18:03:22.145Z,15.90
2018-10-18T18:05:50.304Z,15.90
2018-10-18T18:08:22.819Z,15.90
2018-10-18T18:10:50.417Z,15.80
2018-10-18T18:13:21.245Z,15.40
2018-10-18T18:15:55.891Z,15.80
2018-10-18T18:18:27.436Z,15.80
2018-10-18T18:20:55.208Z,15.80
2018-10-18T18:23:23.121Z,15.80
2018-10-18T18:25:50.976Z,15.80
2018-10-18T18:28:18.803Z,15.80
2018-10-18T18:30:50.771Z,15.80
2018-10-18T18:33:18.653Z,15.90
2018-10-18T18:35:55.483Z,15.80
2018-10-18T18:38:24.771Z,15.90
2018-10-18T18:40:56.856Z,15.70
2018-10-18T18:43:24.657Z,15.80
2018-10-18T18:45:52.455Z,15.70
2018-10-18T18:48:20.142Z,15.70
2018-10-18T18:50:47.958Z,16.10
2018-10-18T18:53:16.308Z,15.50
2018-10-18T18:55:47.423Z,15.70
2018-10-18T18:58:15.198Z,15.70
2018-10-18T19:00:42.976Z,15.70
2018-10-18T19:03:10.803Z,15.70
2018-10-18T19:05:38.526Z,15.60
2018-10-18T19:08:06.326Z,15.70
2018-10-18T19:10:38.280Z,15.60
2018-10-18T19:13:06.068Z,15.60
2018-10-18T19:15:33.972Z,15.50
2018-10-18T19:18:05.209Z,15.50
2018-10-18T19:20:33.219Z,15.50
2018-10-18T19:23:02.952Z,15.50
2018-10-18T19:25:30.894Z,15.20
2018-10-18T19:27:59.194Z,15.30
2018-10-18T19:30:30.804Z,15.40
2018-10-18T19:32:58.597Z,15.40
2018-10-18T19:35:26.759Z,15.20
2018-10-18T19:37:54.620Z,15.30
2018-10-18T19:40:22.389Z,15.20
2018-10-18T19:42:50.180Z,15.20
2018-10-18T19:45:18.038Z,14.90
2018-10-18T19:47:45.847Z,15.30
2018-10-18T19:50:13.831Z,15.30
2018-10-18T19:52:42.005Z,15.20
2018-10-18T19:55:10.223Z,15.20
2018-10-18T19:57:38.361Z,15.20
2018-10-18T20:00:10.640Z,15.20
2018-10-18T20:02:38.743Z,15.30
2018-10-18T20:05:07.066Z,15.30
2018-10-18T20:07:34.950Z,15.30
2018-10-18T20:10:03.031Z,15.20
2018-10-18T20:12:31.076Z,15.20
2018-10-18T20:14:58.956Z,15.30
2018-10-18T20:17:26.775Z,15.30
2018-10-18T20:19:54.716Z,15.30
2018-10-18T20:22:22.554Z,15.30
2018-10-18T20:24:50.382Z,15.30
2018-10-18T20:27:18.259Z,15.20
2018-10-18T20:29:46.307Z,15.20
2018-10-18T20:32:14.127Z,15.20
2018-10-18T20:34:42.066Z,15.10
2018-10-18T20:37:09.962Z,15.10
2018-10-18T20:39:37.735Z,15.00
2018-10-18T20:42:06.140Z,15.00
2018-10-18T20:44:33.872Z,15.00
2018-10-18T20:47:01.734Z,15.10
2018-10-18T20:49:29.761Z,15.10
2018-10-18T20:51:57.689Z,15.10
2018-10-18T20:54:25.812Z,15.10
2018-10-18T20:56:53.677Z,15.10
2018-10-18T20:59:21.477Z,15.10
2018-10-18T21:01:49.399Z,15.10
2018-10-18T21:04:17.581Z,14.90
2018-10-18T21:06:45.654Z,15.10
2018-10-18T21:09:13.424Z,15.10
2018-10-18T21:11:41.215Z,15.10
2018-10-18T21:14:09.074Z,15.20
2018-10-18T21:16:37.240Z,15.10
2018-10-18T21:19:05.413Z,15.10
2018-10-18T21:21:34.018Z,15.00
2018-10-18T21:24:01.819Z,15.00
2018-10-18T21:26:29.628Z,15.00
2018-10-18T21:28:57.527Z,15.00
2018-10-18T21:31:25.313Z,15.00
2018-10-18T21:33:53.339Z,15.00
2018-10-18T21:36:21.171Z,15.00
2018-10-18T21:38:50.013Z,15.00
2018-10-18T21:41:17.874Z,15.00
2018-10-18T21:43:45.963Z,15.00
2018-10-18T21:46:13.691Z,14.90
2018-10-18T21:48:41.723Z,14.90
2018-10-18T21:51:09.614Z,15.00
2018-10-18T21:53:37.159Z,14.90
2018-10-18T21:56:05.179Z,14.90
2018-10-18T21:58:33.015Z,14.90
2018-10-18T22:01:05.222Z,14.90
2018-10-18T22:03:32.988Z,14.90
2018-10-18T22:06:00.802Z,14.90
2018-10-18T22:08:28.592Z,14.90
2018-10-18T22:10:56.451Z,14.90
2018-10-18T22:13:24.239Z,14.90
2018-10-18T22:15:52.099Z,14.90
2018-10-18T22:18:20.034Z,14.80
2018-10-18T22:20:47.951Z,14.90
2018-10-18T22:23:15.931Z,14.80
2018-10-18T22:25:44.131Z,14.90
2018-10-18T22:28:11.861Z,14.90
2018-10-18T22:30:39.794Z,14.90
2018-10-18T22:33:07.757Z,14.90
2018-10-18T22:35:35.572Z,14.90
2018-10-18T22:38:03.449Z,14.90
2018-10-18T22:40:31.448Z,14.80
2018-10-18T22:42:59.291Z,14.90
2018-10-18T22:45:27.135Z,15.00
2018-10-18T22:47:55.005Z,14.90
2018-10-18T22:50:22.825Z,14.80
2018-10-18T22:52:50.808Z,14.80
2018-10-18T22:55:18.731Z,14.80
2018-10-18T22:57:46.609Z,14.80
2018-10-18T23:00:14.466Z,14.70
2018-10-18T23:02:42.283Z,14.70
2018-10-18T23:05:10.232Z,14.70
2018-10-18T23:07:38.166Z,14.60
2018-10-18T23:10:06.334Z,14.70
2018-10-18T23:12:34.328Z,14.70
2018-10-18T23:15:02.188Z,14.70
2018-10-18T23:17:29.963Z,14.70
2018-10-18T23:19:57.775Z,14.80
2018-10-18T23:22:25.576Z,14.80
2018-10-18T23:24:53.372Z,14.70
2018-10-18T23:27:21.019Z,14.70
2018-10-18T23:29:48.898Z,14.50
2018-10-18T23:32:16.712Z,14.50
2018-10-18T23:34:44.516Z,14.50
2018-10-18T23:37:12.361Z,14.90
2018-10-18T23:39:40.179Z,14.50
2018-10-18T23:42:08.016Z,14.10
2018-10-18T23:44:35.908Z,14.20
2018-10-18T23:47:04.984Z,14.40
2018-10-18T23:49:32.847Z,14.40
2018-10-18T23:52:00.733Z,14.30
2018-10-18T23:54:28.532Z,14.30
2018-10-18T23:56:56.912Z,14.30
2018-10-18T23:59:24.674Z,14.30
